sensor_id;sensor_type;location;lat;lon;timestamp;temperature;humidity
68439;SHT31;55421;51.600;5.718;2024-03-17T00:00:38;7.86;76.17
68439;SHT31;55421;51.600;5.718;2024-03-17T00:03:28;7.84;76.56
68439;SHT31;55421;51.600;5.718;2024-03-17T00:05:56;7.83;76.77
68439;SHT31;55421;51.600;5.718;2024-03-17T00:08:25;7.81;76.80
68439;SHT31;55421;51.600;5.718;2024-03-17T00:10:52;7.80;76.75
68439;SHT31;55421;51.600;5.718;2024-03-17T00:13:20;7.78;76.62
68439;SHT31;55421;51.600;5.718;2024-03-17T00:15:48;7.77;76.52
68439;SHT31;55421;51.600;5.718;2024-03-17T00:18:15;7.77;76.54
68439;SHT31;55421;51.600;5.718;2024-03-17T00:20:43;7.80;76.73
68439;SHT31;55421;51.600;5.718;2024-03-17T00:23:10;7.80;76.72
68439;SHT31;55421;51.600;5.718;2024-03-17T00:25:38;7.78;76.50
68439;SHT31;55421;51.600;5.718;2024-03-17T00:28:05;7.76;76.48
68439;SHT31;55421;51.600;5.718;2024-03-17T00:30:32;7.72;76.42
68439;SHT31;55421;51.600;5.718;2024-03-17T00:32:58;7.66;76.32
68439;SHT31;55421;51.600;5.718;2024-03-17T00:35:25;7.60;76.19
68439;SHT31;55421;51.600;5.718;2024-03-17T00:37:52;7.55;76.26
68439;SHT31;55421;51.600;5.718;2024-03-17T00:40:21;7.52;76.43
68439;SHT31;55421;51.600;5.718;2024-03-17T00:42:47;7.49;76.45
68439;SHT31;55421;51.600;5.718;2024-03-17T00:45:14;7.47;76.36
68439;SHT31;55421;51.600;5.718;2024-03-17T00:47:41;7.45;76.37
68439;SHT31;55421;51.600;5.718;2024-03-17T00:50:08;7.42;76.31
68439;SHT31;55421;51.600;5.718;2024-03-17T00:52:37;7.39;76.29
68439;SHT31;55421;51.600;5.718;2024-03-17T00:55:03;7.36;76.45
68439;SHT31;55421;51.600;5.718;2024-03-17T00:57:30;7.34;76.69
68439;SHT31;55421;51.600;5.718;2024-03-17T00:59:56;7.34;76.77
68439;SHT31;55421;51.600;5.718;2024-03-17T01:02:23;7.29;76.63
68439;SHT31;55421;51.600;5.718;2024-03-17T01:04:49;7.24;76.59
68439;SHT31;55421;51.600;5.718;2024-03-17T01:07:15;7.20;76.69
68439;SHT31;55421;51.600;5.718;2024-03-17T01:09:42;7.19;76.83
68439;SHT31;55421;51.600;5.718;2024-03-17T01:12:08;7.19;76.86
68439;SHT31;55421;51.600;5.718;2024-03-17T01:14:35;7.17;76.73
68439;SHT31;55421;51.600;5.718;2024-03-17T01:17:01;7.17;76.72
68439;SHT31;55421;51.600;5.718;2024-03-17T01:19:31;7.18;76.76
68439;SHT31;55421;51.600;5.718;2024-03-17T01:21:59;7.20;76.66
68439;SHT31;55421;51.600;5.718;2024-03-17T01:24:27;7.22;76.60
68439;SHT31;55421;51.600;5.718;2024-03-17T01:26:58;7.24;76.61
68439;SHT31;55421;51.600;5.718;2024-03-17T01:29:25;7.25;76.62
68439;SHT31;55421;51.600;5.718;2024-03-17T01:31:52;7.27;76.70
68439;SHT31;55421;51.600;5.718;2024-03-17T01:34:19;7.28;76.68
68439;SHT31;55421;51.600;5.718;2024-03-17T01:36:46;7.24;76.60
68439;SHT31;55421;51.600;5.718;2024-03-17T01:39:12;7.22;76.67
68439;SHT31;55421;51.600;5.718;2024-03-17T01:41:40;7.21;76.73
68439;SHT31;55421;51.600;5.718;2024-03-17T01:44:07;7.19;76.76
68439;SHT31;55421;51.600;5.718;2024-03-17T01:46:47;7.18;76.81
68439;SHT31;55421;51.600;5.718;2024-03-17T01:49:14;7.18;76.80
68439;SHT31;55421;51.600;5.718;2024-03-17T01:51:40;7.16;76.80
68439;SHT31;55421;51.600;5.718;2024-03-17T01:54:07;7.16;76.96
68439;SHT31;55421;51.600;5.718;2024-03-17T01:56:35;7.16;77.01
68439;SHT31;55421;51.600;5.718;2024-03-17T01:59:01;7.14;76.99
68439;SHT31;55421;51.600;5.718;2024-03-17T02:01:31;7.12;77.02
68439;SHT31;55421;51.600;5.718;2024-03-17T02:03:58;7.09;77.19
68439;SHT31;55421;51.600;5.718;2024-03-17T02:06:25;7.05;77.17
68439;SHT31;55421;51.600;5.718;2024-03-17T02:08:52;6.97;77.22
68439;SHT31;55421;51.600;5.718;2024-03-17T02:11:30;6.92;77.33
68439;SHT31;55421;51.600;5.718;2024-03-17T02:13:59;6.89;77.40
68439;SHT31;55421;51.600;5.718;2024-03-17T02:16:27;6.88;77.45
68439;SHT31;55421;51.600;5.718;2024-03-17T02:18:54;6.87;77.43
68439;SHT31;55421;51.600;5.718;2024-03-17T02:21:23;6.86;77.50
68439;SHT31;55421;51.600;5.718;2024-03-17T02:23:53;6.85;77.59
68439;SHT31;55421;51.600;5.718;2024-03-17T02:26:21;6.86;77.64
68439;SHT31;55421;51.600;5.718;2024-03-17T02:28:50;6.86;77.68
68439;SHT31;55421;51.600;5.718;2024-03-17T02:31:16;6.85;77.72
68439;SHT31;55421;51.600;5.718;2024-03-17T02:33:44;6.84;77.87
68439;SHT31;55421;51.600;5.718;2024-03-17T02:36:11;6.84;77.97
68439;SHT31;55421;51.600;5.718;2024-03-17T02:38:39;6.85;78.10
68439;SHT31;55421;51.600;5.718;2024-03-17T02:41:25;6.87;78.11
68439;SHT31;55421;51.600;5.718;2024-03-17T02:43:52;6.89;78.29
68439;SHT31;55421;51.600;5.718;2024-03-17T02:46:19;6.93;78.47
68439;SHT31;55421;51.600;5.718;2024-03-17T02:48:51;6.98;78.57
68439;SHT31;55421;51.600;5.718;2024-03-17T02:51:19;7.01;78.61
68439;SHT31;55421;51.600;5.718;2024-03-17T02:53:49;7.05;78.65
68439;SHT31;55421;51.600;5.718;2024-03-17T02:56:16;7.10;78.81
68439;SHT31;55421;51.600;5.718;2024-03-17T02:58:45;7.16;78.90
68439;SHT31;55421;51.600;5.718;2024-03-17T03:01:13;7.23;78.84
68439;SHT31;55421;51.600;5.718;2024-03-17T03:03:43;7.28;78.90
68439;SHT31;55421;51.600;5.718;2024-03-17T03:06:09;7.31;78.92
68439;SHT31;55421;51.600;5.718;2024-03-17T03:08:40;7.33;78.94
68439;SHT31;55421;51.600;5.718;2024-03-17T03:11:08;7.33;78.94
68439;SHT31;55421;51.600;5.718;2024-03-17T03:13:38;7.30;78.91
68439;SHT31;55421;51.600;5.718;2024-03-17T03:16:10;7.31;79.06
68439;SHT31;55421;51.600;5.718;2024-03-17T03:18:44;7.34;79.17
68439;SHT31;55421;51.600;5.718;2024-03-17T03:21:11;7.38;79.24
68439;SHT31;55421;51.600;5.718;2024-03-17T03:23:38;7.41;79.34
68439;SHT31;55421;51.600;5.718;2024-03-17T03:26:05;7.47;79.40
68439;SHT31;55421;51.600;5.718;2024-03-17T03:28:35;7.50;79.40
68439;SHT31;55421;51.600;5.718;2024-03-17T03:31:02;7.54;79.41
68439;SHT31;55421;51.600;5.718;2024-03-17T03:33:28;7.57;79.41
68439;SHT31;55421;51.600;5.718;2024-03-17T03:35:55;7.61;79.42
68439;SHT31;55421;51.600;5.718;2024-03-17T03:38:21;7.65;79.49
68439;SHT31;55421;51.600;5.718;2024-03-17T03:40:49;7.67;79.50
68439;SHT31;55421;51.600;5.718;2024-03-17T03:43:15;7.68;79.48
68439;SHT31;55421;51.600;5.718;2024-03-17T03:45:42;7.68;79.46
68439;SHT31;55421;51.600;5.718;2024-03-17T03:48:08;7.66;79.43
68439;SHT31;55421;51.600;5.718;2024-03-17T03:50:35;7.63;79.42
68439;SHT31;55421;51.600;5.718;2024-03-17T03:53:03;7.63;79.50
68439;SHT31;55421;51.600;5.718;2024-03-17T03:55:31;7.62;79.50
68439;SHT31;55421;51.600;5.718;2024-03-17T03:57:58;7.63;79.57
68439;SHT31;55421;51.600;5.718;2024-03-17T04:00:24;7.64;79.60
68439;SHT31;55421;51.600;5.718;2024-03-17T04:02:55;7.63;79.52
68439;SHT31;55421;51.600;5.718;2024-03-17T04:05:24;7.64;79.58
68439;SHT31;55421;51.600;5.718;2024-03-17T04:07:51;7.65;79.50
68439;SHT31;55421;51.600;5.718;2024-03-17T04:10:17;7.66;79.50
68439;SHT31;55421;51.600;5.718;2024-03-17T04:12:46;7.68;79.57
68439;SHT31;55421;51.600;5.718;2024-03-17T04:15:13;7.71;79.69
68439;SHT31;55421;51.600;5.718;2024-03-17T04:17:40;7.72;79.64
68439;SHT31;55421;51.600;5.718;2024-03-17T04:20:08;7.74;79.67
68439;SHT31;55421;51.600;5.718;2024-03-17T04:22:41;7.76;79.77
68439;SHT31;55421;51.600;5.718;2024-03-17T04:25:12;7.77;79.84
68439;SHT31;55421;51.600;5.718;2024-03-17T04:27:39;7.76;79.85
68439;SHT31;55421;51.600;5.718;2024-03-17T04:30:06;7.73;79.76
68439;SHT31;55421;51.600;5.718;2024-03-17T04:32:34;7.72;79.70
68439;SHT31;55421;51.600;5.718;2024-03-17T04:35:01;7.69;79.77
68439;SHT31;55421;51.600;5.718;2024-03-17T04:37:28;7.67;79.85
68439;SHT31;55421;51.600;5.718;2024-03-17T04:39:54;7.66;79.96
68439;SHT31;55421;51.600;5.718;2024-03-17T04:42:23;7.66;80.07
68439;SHT31;55421;51.600;5.718;2024-03-17T04:44:50;7.64;80.09
68439;SHT31;55421;51.600;5.718;2024-03-17T04:47:17;7.62;80.01
68439;SHT31;55421;51.600;5.718;2024-03-17T04:49:43;7.58;80.06
68439;SHT31;55421;51.600;5.718;2024-03-17T04:52:12;7.58;80.15
68439;SHT31;55421;51.600;5.718;2024-03-17T04:54:42;7.57;80.20
68439;SHT31;55421;51.600;5.718;2024-03-17T04:57:09;7.56;80.33
68439;SHT31;55421;51.600;5.718;2024-03-17T04:59:36;7.56;80.41
68439;SHT31;55421;51.600;5.718;2024-03-17T05:02:04;7.53;80.35
68439;SHT31;55421;51.600;5.718;2024-03-17T05:04:31;7.49;80.29
68439;SHT31;55421;51.600;5.718;2024-03-17T05:06:57;7.46;80.29
68439;SHT31;55421;51.600;5.718;2024-03-17T05:09:23;7.43;80.30
68439;SHT31;55421;51.600;5.718;2024-03-17T05:11:50;7.42;80.37
68439;SHT31;55421;51.600;5.718;2024-03-17T05:14:20;7.40;80.30
68439;SHT31;55421;51.600;5.718;2024-03-17T05:16:49;7.36;80.28
68439;SHT31;55421;51.600;5.718;2024-03-17T05:19:17;7.33;80.30
68439;SHT31;55421;51.600;5.718;2024-03-17T05:21:44;7.27;80.37
68439;SHT31;55421;51.600;5.718;2024-03-17T05:24:11;7.23;80.42
68439;SHT31;55421;51.600;5.718;2024-03-17T05:26:38;7.17;80.50
68439;SHT31;55421;51.600;5.718;2024-03-17T05:29:05;7.14;80.50
68439;SHT31;55421;51.600;5.718;2024-03-17T05:31:31;7.09;80.59
68439;SHT31;55421;51.600;5.718;2024-03-17T05:33:58;7.06;80.65
68439;SHT31;55421;51.600;5.718;2024-03-17T05:36:24;7.04;80.77
68439;SHT31;55421;51.600;5.718;2024-03-17T05:38:50;7.02;80.70
68439;SHT31;55421;51.600;5.718;2024-03-17T05:41:17;6.99;80.71
68439;SHT31;55421;51.600;5.718;2024-03-17T05:43:43;6.96;80.74
68439;SHT31;55421;51.600;5.718;2024-03-17T05:46:10;6.96;80.81
68439;SHT31;55421;51.600;5.718;2024-03-17T05:48:39;6.97;80.80
68439;SHT31;55421;51.600;5.718;2024-03-17T05:51:07;6.97;80.79
68439;SHT31;55421;51.600;5.718;2024-03-17T05:53:38;6.99;80.74
68439;SHT31;55421;51.600;5.718;2024-03-17T05:56:12;7.01;80.79
68439;SHT31;55421;51.600;5.718;2024-03-17T05:58:39;7.02;80.80
68439;SHT31;55421;51.600;5.718;2024-03-17T06:01:06;7.01;80.79
68439;SHT31;55421;51.600;5.718;2024-03-17T06:03:33;7.00;80.80
68439;SHT31;55421;51.600;5.718;2024-03-17T06:06:04;7.00;80.83
68439;SHT31;55421;51.600;5.718;2024-03-17T06:08:38;7.00;80.90
68439;SHT31;55421;51.600;5.718;2024-03-17T06:11:05;7.01;80.90
68439;SHT31;55421;51.600;5.718;2024-03-17T06:13:32;7.01;80.82
68439;SHT31;55421;51.600;5.718;2024-03-17T06:15:58;6.99;80.70
68439;SHT31;55421;51.600;5.718;2024-03-17T06:18:28;6.98;80.61
68439;SHT31;55421;51.600;5.718;2024-03-17T06:20:55;6.98;80.55
68439;SHT31;55421;51.600;5.718;2024-03-17T06:23:24;6.97;80.54
68439;SHT31;55421;51.600;5.718;2024-03-17T06:25:54;6.99;80.60
68439;SHT31;55421;51.600;5.718;2024-03-17T06:28:23;7.01;80.60
68439;SHT31;55421;51.600;5.718;2024-03-17T06:30:55;7.05;80.51
68439;SHT31;55421;51.600;5.718;2024-03-17T06:33:25;7.12;80.58
68439;SHT31;55421;51.600;5.718;2024-03-17T06:35:54;7.17;80.56
68439;SHT31;55421;51.600;5.718;2024-03-17T06:38:22;7.20;80.47
68439;SHT31;55421;51.600;5.718;2024-03-17T06:40:49;7.23;80.41
68439;SHT31;55421;51.600;5.718;2024-03-17T06:43:17;7.23;80.39
68439;SHT31;55421;51.600;5.718;2024-03-17T06:45:59;7.24;80.37
68439;SHT31;55421;51.600;5.718;2024-03-17T06:48:27;7.24;80.21
68439;SHT31;55421;51.600;5.718;2024-03-17T06:50:54;7.28;80.29
68439;SHT31;55421;51.600;5.718;2024-03-17T06:53:21;7.32;80.29
68439;SHT31;55421;51.600;5.718;2024-03-17T06:55:56;7.37;80.22
68439;SHT31;55421;51.600;5.718;2024-03-17T06:58:25;7.42;80.20
68439;SHT31;55421;51.600;5.718;2024-03-17T07:00:56;7.50;80.25
68439;SHT31;55421;51.600;5.718;2024-03-17T07:03:25;7.57;80.24
68439;SHT31;55421;51.600;5.718;2024-03-17T07:05:54;7.67;80.11
68439;SHT31;55421;51.600;5.718;2024-03-17T07:08:22;7.76;80.08
68439;SHT31;55421;51.600;5.718;2024-03-17T07:13:22;7.87;79.66
68439;SHT31;55421;51.600;5.718;2024-03-17T07:15:49;7.87;79.53
68439;SHT31;55421;51.600;5.718;2024-03-17T07:18:15;7.87;79.39
68439;SHT31;55421;51.600;5.718;2024-03-17T07:20:42;7.86;79.26
68439;SHT31;55421;51.600;5.718;2024-03-17T07:23:08;7.87;79.13
68439;SHT31;55421;51.600;5.718;2024-03-17T07:25:35;7.93;79.10
68439;SHT31;55421;51.600;5.718;2024-03-17T07:28:01;8.02;79.08
68439;SHT31;55421;51.600;5.718;2024-03-17T07:30:27;8.16;79.12
68439;SHT31;55421;51.600;5.718;2024-03-17T07:32:55;8.35;79.17
68439;SHT31;55421;51.600;5.718;2024-03-17T07:35:21;8.52;78.87
68439;SHT31;55421;51.600;5.718;2024-03-17T07:37:47;8.66;78.70
68439;SHT31;55421;51.600;5.718;2024-03-17T07:40:14;8.76;78.59
68439;SHT31;55421;51.600;5.718;2024-03-17T07:42:41;8.84;78.42
68439;SHT31;55421;51.600;5.718;2024-03-17T07:45:08;8.92;78.30
68439;SHT31;55421;51.600;5.718;2024-03-17T07:47:35;8.94;78.18
68439;SHT31;55421;51.600;5.718;2024-03-17T07:50:04;8.94;77.91
68439;SHT31;55421;51.600;5.718;2024-03-17T07:52:31;8.95;77.73
68439;SHT31;55421;51.600;5.718;2024-03-17T07:54:58;8.96;77.53
68439;SHT31;55421;51.600;5.718;2024-03-17T07:57:24;8.98;77.55
68439;SHT31;55421;51.600;5.718;2024-03-17T07:59:50;9.02;77.73
68439;SHT31;55421;51.600;5.718;2024-03-17T08:02:17;9.06;77.71
68439;SHT31;55421;51.600;5.718;2024-03-17T08:04:43;9.11;77.75
68439;SHT31;55421;51.600;5.718;2024-03-17T08:07:13;9.18;77.80
68439;SHT31;55421;51.600;5.718;2024-03-17T08:09:39;9.22;77.68
68439;SHT31;55421;51.600;5.718;2024-03-17T08:12:05;9.25;77.51
68439;SHT31;55421;51.600;5.718;2024-03-17T08:14:32;9.27;77.33
68439;SHT31;55421;51.600;5.718;2024-03-17T08:16:59;9.30;77.20
68439;SHT31;55421;51.600;5.718;2024-03-17T08:19:25;9.30;77.12
68439;SHT31;55421;51.600;5.718;2024-03-17T08:21:51;9.32;77.09
68439;SHT31;55421;51.600;5.718;2024-03-17T08:24:18;9.37;77.10
68439;SHT31;55421;51.600;5.718;2024-03-17T08:26:44;9.43;77.07
68439;SHT31;55421;51.600;5.718;2024-03-17T08:29:11;9.50;77.10
68439;SHT31;55421;51.600;5.718;2024-03-17T08:31:38;9.54;76.94
68439;SHT31;55421;51.600;5.718;2024-03-17T08:34:04;9.57;76.96
68439;SHT31;55421;51.600;5.718;2024-03-17T08:36:31;9.60;77.00
68439;SHT31;55421;51.600;5.718;2024-03-17T08:38:58;9.63;76.97
68439;SHT31;55421;51.600;5.718;2024-03-17T08:41:24;9.64;76.90
68439;SHT31;55421;51.600;5.718;2024-03-17T08:43:51;9.67;76.87
68439;SHT31;55421;51.600;5.718;2024-03-17T08:46:18;9.71;76.88
68439;SHT31;55421;51.600;5.718;2024-03-17T08:48:44;9.73;76.77
68439;SHT31;55421;51.600;5.718;2024-03-17T08:51:11;9.80;76.86
68439;SHT31;55421;51.600;5.718;2024-03-17T08:53:38;9.86;76.91
68439;SHT31;55421;51.600;5.718;2024-03-17T08:56:05;9.92;76.90
68439;SHT31;55421;51.600;5.718;2024-03-17T08:58:34;9.95;76.75
68439;SHT31;55421;51.600;5.718;2024-03-17T09:01:07;9.98;76.60
68439;SHT31;55421;51.600;5.718;2024-03-17T09:03:34;10.02;76.58
68439;SHT31;55421;51.600;5.718;2024-03-17T09:06:01;10.07;76.70
68439;SHT31;55421;51.600;5.718;2024-03-17T09:08:28;10.13;76.63
68439;SHT31;55421;51.600;5.718;2024-03-17T09:10:54;10.19;76.42
68439;SHT31;55421;51.600;5.718;2024-03-17T09:13:22;10.23;76.40
68439;SHT31;55421;51.600;5.718;2024-03-17T09:15:56;10.28;76.33
68439;SHT31;55421;51.600;5.718;2024-03-17T09:18:27;10.34;76.32
68439;SHT31;55421;51.600;5.718;2024-03-17T09:21:04;10.42;76.32
68439;SHT31;55421;51.600;5.718;2024-03-17T09:23:36;10.55;76.35
68439;SHT31;55421;51.600;5.718;2024-03-17T09:26:05;10.66;76.09
68439;SHT31;55421;51.600;5.718;2024-03-17T09:28:39;10.74;75.95
68439;SHT31;55421;51.600;5.718;2024-03-17T09:31:05;10.83;75.84
68439;SHT31;55421;51.600;5.718;2024-03-17T09:33:33;10.90;75.67
68439;SHT31;55421;51.600;5.718;2024-03-17T09:36:07;10.95;75.46
68439;SHT31;55421;51.600;5.718;2024-03-17T09:38:39;11.02;75.47
68439;SHT31;55421;51.600;5.718;2024-03-17T09:41:05;11.13;75.51
68439;SHT31;55421;51.600;5.718;2024-03-17T09:43:34;11.27;75.25
68439;SHT31;55421;51.600;5.718;2024-03-17T09:46:02;11.45;75.04
68439;SHT31;55421;51.600;5.718;2024-03-17T09:48:30;11.63;74.65
68439;SHT31;55421;51.600;5.718;2024-03-17T09:50:57;11.76;74.36
68439;SHT31;55421;51.600;5.718;2024-03-17T09:53:29;11.87;74.10
68439;SHT31;55421;51.600;5.718;2024-03-17T09:56:01;11.94;73.76
68439;SHT31;55421;51.600;5.718;2024-03-17T09:58:35;12.00;73.74
68439;SHT31;55421;51.600;5.718;2024-03-17T10:01:01;12.08;73.61
68439;SHT31;55421;51.600;5.718;2024-03-17T10:06:12;12.24;73.26
68439;SHT31;55421;51.600;5.718;2024-03-17T10:08:44;12.28;72.73
68439;SHT31;55421;51.600;5.718;2024-03-17T10:11:13;12.34;72.70
68439;SHT31;55421;51.600;5.718;2024-03-17T10:13:42;12.43;72.99
68439;SHT31;55421;51.600;5.718;2024-03-17T10:16:28;12.56;72.95
68439;SHT31;55421;51.600;5.718;2024-03-17T10:19:07;12.68;72.55
68439;SHT31;55421;51.600;5.718;2024-03-17T10:21:36;12.73;72.22
68439;SHT31;55421;51.600;5.718;2024-03-17T10:24:08;12.76;72.06
68439;SHT31;55421;51.600;5.718;2024-03-17T10:26:43;12.80;72.10
68439;SHT31;55421;51.600;5.718;2024-03-17T10:29:23;12.83;72.02
68439;SHT31;55421;51.600;5.718;2024-03-17T10:34:29;12.92;72.00
68439;SHT31;55421;51.600;5.718;2024-03-17T10:37:05;12.99;71.89
68439;SHT31;55421;51.600;5.718;2024-03-17T10:39:50;13.06;71.26
68439;SHT31;55421;51.600;5.718;2024-03-17T10:42:27;13.08;70.80
68439;SHT31;55421;51.600;5.718;2024-03-17T10:44:55;13.11;70.93
68439;SHT31;55421;51.600;5.718;2024-03-17T10:47:22;13.15;71.06
68439;SHT31;55421;51.600;5.718;2024-03-17T10:49:52;13.20;71.41
68439;SHT31;55421;51.600;5.718;2024-03-17T10:52:22;13.25;71.51
68439;SHT31;55421;51.600;5.718;2024-03-17T10:54:52;13.26;71.31
68439;SHT31;55421;51.600;5.718;2024-03-17T11:00:02;13.18;70.83
68439;SHT31;55421;51.600;5.718;2024-03-17T11:02:38;13.16;70.69
68439;SHT31;55421;51.600;5.718;2024-03-17T11:07:42;13.06;70.72
68439;SHT31;55421;51.600;5.718;2024-03-17T11:10:26;13.07;70.90
68439;SHT31;55421;51.600;5.718;2024-03-17T11:13:01;13.07;71.13
68439;SHT31;55421;51.600;5.718;2024-03-17T11:20:58;13.13;71.34
68439;SHT31;55421;51.600;5.718;2024-03-17T11:23:34;13.14;71.15
68439;SHT31;55421;51.600;5.718;2024-03-17T11:26:03;13.16;71.21
68439;SHT31;55421;51.600;5.718;2024-03-17T11:34:02;13.34;71.36
68439;SHT31;55421;51.600;5.718;2024-03-17T11:36:37;13.40;71.10
68439;SHT31;55421;51.600;5.718;2024-03-17T11:39:05;13.44;70.82
68439;SHT31;55421;51.600;5.718;2024-03-17T11:41:43;13.45;70.56
68439;SHT31;55421;51.600;5.718;2024-03-17T11:49:31;13.40;71.05
68439;SHT31;55421;51.600;5.718;2024-03-17T11:52:08;13.40;71.26
68439;SHT31;55421;51.600;5.718;2024-03-17T11:54:39;13.43;71.36
68439;SHT31;55421;51.600;5.718;2024-03-17T11:57:12;13.47;71.32
68439;SHT31;55421;51.600;5.718;2024-03-17T11:59:45;13.50;70.97
68439;SHT31;55421;51.600;5.718;2024-03-17T12:02:28;13.53;70.66
68439;SHT31;55421;51.600;5.718;2024-03-17T12:04:58;13.58;70.77
68439;SHT31;55421;51.600;5.718;2024-03-17T12:07:28;13.65;70.85
68439;SHT31;55421;51.600;5.718;2024-03-17T12:09:56;13.72;70.82
68439;SHT31;55421;51.600;5.718;2024-03-17T12:12:25;13.77;70.59
68439;SHT31;55421;51.600;5.718;2024-03-17T12:15:03;13.83;70.65
68439;SHT31;55421;51.600;5.718;2024-03-17T12:17:42;13.88;70.50
68439;SHT31;55421;51.600;5.718;2024-03-17T12:20:18;13.90;70.58
68439;SHT31;55421;51.600;5.718;2024-03-17T12:22:47;13.91;70.49
68439;SHT31;55421;51.600;5.718;2024-03-17T12:25:16;13.90;70.12
68439;SHT31;55421;51.600;5.718;2024-03-17T12:27:45;13.87;70.23
68439;SHT31;55421;51.600;5.718;2024-03-17T12:30:14;13.88;70.53
68439;SHT31;55421;51.600;5.718;2024-03-17T12:32:43;13.91;70.77
68439;SHT31;55421;51.600;5.718;2024-03-17T12:35:12;13.95;70.68
68439;SHT31;55421;51.600;5.718;2024-03-17T12:37:45;13.98;70.70
68439;SHT31;55421;51.600;5.718;2024-03-17T12:40:18;13.97;70.62
68439;SHT31;55421;51.600;5.718;2024-03-17T12:42:48;13.97;70.50
68439;SHT31;55421;51.600;5.718;2024-03-17T12:45:19;13.93;70.11
68439;SHT31;55421;51.600;5.718;2024-03-17T12:47:48;13.88;70.23
68439;SHT31;55421;51.600;5.718;2024-03-17T12:50:17;13.83;70.31
68439;SHT31;55421;51.600;5.718;2024-03-17T12:52:56;13.76;70.09
68439;SHT31;55421;51.600;5.718;2024-03-17T12:55:22;13.72;70.20
68439;SHT31;55421;51.600;5.718;2024-03-17T12:58:09;13.68;70.52
68439;SHT31;55421;51.600;5.718;2024-03-17T13:00:59;13.66;70.91
68439;SHT31;55421;51.600;5.718;2024-03-17T13:03:28;13.66;70.90
68439;SHT31;55421;51.600;5.718;2024-03-17T13:06:00;13.69;71.18
68439;SHT31;55421;51.600;5.718;2024-03-17T13:08:29;13.71;71.12
68439;SHT31;55421;51.600;5.718;2024-03-17T13:10:55;13.74;70.92
68439;SHT31;55421;51.600;5.718;2024-03-17T13:13:21;13.74;70.62
68439;SHT31;55421;51.600;5.718;2024-03-17T13:15:48;13.76;70.74
68439;SHT31;55421;51.600;5.718;2024-03-17T13:18:16;13.78;70.89
68439;SHT31;55421;51.600;5.718;2024-03-17T13:20:46;13.81;71.09
68439;SHT31;55421;51.600;5.718;2024-03-17T13:23:16;13.85;70.98
68439;SHT31;55421;51.600;5.718;2024-03-17T13:25:42;13.89;71.15
68439;SHT31;55421;51.600;5.718;2024-03-17T13:28:10;13.97;71.05
68439;SHT31;55421;51.600;5.718;2024-03-17T13:30:37;14.05;71.03
68439;SHT31;55421;51.600;5.718;2024-03-17T13:33:04;14.13;71.03
68439;SHT31;55421;51.600;5.718;2024-03-17T13:35:35;14.22;71.01
68439;SHT31;55421;51.600;5.718;2024-03-17T13:38:09;14.30;70.93
68439;SHT31;55421;51.600;5.718;2024-03-17T13:40:39;14.36;70.72
68439;SHT31;55421;51.600;5.718;2024-03-17T13:43:07;14.39;70.52
68439;SHT31;55421;51.600;5.718;2024-03-17T13:45:38;14.45;70.54
68439;SHT31;55421;51.600;5.718;2024-03-17T13:48:07;14.47;70.20
68439;SHT31;55421;51.600;5.718;2024-03-17T13:50:37;14.55;70.17
68439;SHT31;55421;51.600;5.718;2024-03-17T13:53:06;14.65;70.02
68439;SHT31;55421;51.600;5.718;2024-03-17T13:55:33;14.79;70.03
68439;SHT31;55421;51.600;5.718;2024-03-17T13:58:01;14.96;69.94
68439;SHT31;55421;51.600;5.718;2024-03-17T14:00:28;15.12;69.74
68439;SHT31;55421;51.600;5.718;2024-03-17T14:02:57;15.24;69.49
68439;SHT31;55421;51.600;5.718;2024-03-17T14:05:25;15.38;69.22
68439;SHT31;55421;51.600;5.718;2024-03-17T14:07:53;15.55;68.65
68439;SHT31;55421;51.600;5.718;2024-03-17T14:10:22;15.69;68.05
68439;SHT31;55421;51.600;5.718;2024-03-17T14:12:52;15.83;68.34
68439;SHT31;55421;51.600;5.718;2024-03-17T14:15:23;15.99;68.15
68439;SHT31;55421;51.600;5.718;2024-03-17T14:17:49;16.08;66.91
68439;SHT31;55421;51.600;5.718;2024-03-17T14:20:16;16.08;66.41
68439;SHT31;55421;51.600;5.718;2024-03-17T14:22:44;16.02;66.67
68439;SHT31;55421;51.600;5.718;2024-03-17T14:25:15;15.98;66.92
68439;SHT31;55421;51.600;5.718;2024-03-17T14:27:43;15.90;66.79
68439;SHT31;55421;51.600;5.718;2024-03-17T14:30:15;15.82;66.84
68439;SHT31;55421;51.600;5.718;2024-03-17T14:32:44;15.70;66.90
68439;SHT31;55421;51.600;5.718;2024-03-17T14:35:12;15.57;66.74
68439;SHT31;55421;51.600;5.718;2024-03-17T14:37:41;15.44;66.99
68439;SHT31;55421;51.600;5.718;2024-03-17T14:40:16;15.37;67.45
68439;SHT31;55421;51.600;5.718;2024-03-17T14:42:50;15.31;67.90
68439;SHT31;55421;51.600;5.718;2024-03-17T14:45:17;15.28;67.99
68439;SHT31;55421;51.600;5.718;2024-03-17T14:47:45;15.27;68.07
68439;SHT31;55421;51.600;5.718;2024-03-17T14:50:12;15.24;67.91
68439;SHT31;55421;51.600;5.718;2024-03-17T14:52:42;15.24;68.13
68439;SHT31;55421;51.600;5.718;2024-03-17T14:55:09;15.27;68.44
68439;SHT31;55421;51.600;5.718;2024-03-17T14:57:39;15.31;68.86
68439;SHT31;55421;51.600;5.718;2024-03-17T15:00:07;15.35;68.61
68439;SHT31;55421;51.600;5.718;2024-03-17T15:02:42;15.38;68.46
68439;SHT31;55421;51.600;5.718;2024-03-17T15:05:11;15.37;68.43
68439;SHT31;55421;51.600;5.718;2024-03-17T15:07:42;15.38;68.56
68439;SHT31;55421;51.600;5.718;2024-03-17T15:10:08;15.38;68.72
68439;SHT31;55421;51.600;5.718;2024-03-17T15:12:35;15.39;68.61
68439;SHT31;55421;51.600;5.718;2024-03-17T15:15:01;15.37;68.51
68439;SHT31;55421;51.600;5.718;2024-03-17T15:17:28;15.33;68.50
68439;SHT31;55421;51.600;5.718;2024-03-17T15:19:54;15.29;68.50
68439;SHT31;55421;51.600;5.718;2024-03-17T15:22:21;15.26;68.44
68439;SHT31;55421;51.600;5.718;2024-03-17T15:24:48;15.22;68.33
68439;SHT31;55421;51.600;5.718;2024-03-17T15:27:14;15.22;68.43
68439;SHT31;55421;51.600;5.718;2024-03-17T15:29:41;15.22;68.46
68439;SHT31;55421;51.600;5.718;2024-03-17T15:32:07;15.24;68.45
68439;SHT31;55421;51.600;5.718;2024-03-17T15:34:33;15.26;68.52
68439;SHT31;55421;51.600;5.718;2024-03-17T15:37:03;15.27;68.74
68439;SHT31;55421;51.600;5.718;2024-03-17T15:39:31;15.28;68.89
68439;SHT31;55421;51.600;5.718;2024-03-17T15:41:57;15.26;68.64
68439;SHT31;55421;51.600;5.718;2024-03-17T15:44:24;15.24;68.48
68439;SHT31;55421;51.600;5.718;2024-03-17T15:46:50;15.20;68.42
68439;SHT31;55421;51.600;5.718;2024-03-17T15:49:17;15.17;68.42
68439;SHT31;55421;51.600;5.718;2024-03-17T15:51:43;15.12;68.42
68439;SHT31;55421;51.600;5.718;2024-03-17T15:54:10;15.08;68.50
68439;SHT31;55421;51.600;5.718;2024-03-17T15:56:36;15.05;68.44
68439;SHT31;55421;51.600;5.718;2024-03-17T15:59:02;15.00;68.56
68439;SHT31;55421;51.600;5.718;2024-03-17T16:01:29;14.96;68.69
68439;SHT31;55421;51.600;5.718;2024-03-17T16:03:55;14.94;69.04
68439;SHT31;55421;51.600;5.718;2024-03-17T16:06:22;14.95;69.29
68439;SHT31;55421;51.600;5.718;2024-03-17T16:08:49;14.94;69.24
68439;SHT31;55421;51.600;5.718;2024-03-17T16:11:19;14.93;69.32
68439;SHT31;55421;51.600;5.718;2024-03-17T16:13:53;14.93;69.35
68439;SHT31;55421;51.600;5.718;2024-03-17T16:16:25;14.91;69.62
68439;SHT31;55421;51.600;5.718;2024-03-17T16:18:54;14.90;69.60